createdAt,value
2022-12-08T00:00:23.130Z,13.27
2022-12-08T00:02:50.563Z,16.37
2022-12-08T00:05:36.620Z,15.07
2022-12-08T00:08:22.732Z,16.77
2022-12-08T00:10:50.218Z,15.57
2022-12-08T00:13:17.650Z,17.90
2022-12-08T00:15:44.630Z,14.35
2022-12-08T00:18:11.849Z,17.35
2022-12-08T00:20:39.197Z,15.65
2022-12-08T00:23:06.417Z,17.33
2022-12-08T00:25:36.501Z,15.02
2022-12-08T00:28:04.015Z,14.18
2022-12-08T00:30:30.987Z,15.65
2022-12-08T00:32:58.586Z,15.45
2022-12-08T00:35:25.867Z,17.05
2022-12-08T00:37:57.573Z,15.82
2022-12-08T00:40:28.049Z,16.23
2022-12-08T00:42:56.146Z,16.73
2022-12-08T00:45:23.190Z,16.15
2022-12-08T00:47:50.461Z,14.55
2022-12-08T00:50:17.460Z,14.20
2022-12-08T00:52:44.445Z,16.35
2022-12-08T00:55:11.726Z,12.82
2022-12-08T00:57:38.712Z,12.65
2022-12-08T01:00:06.821Z,16.20
2022-12-08T01:02:34.671Z,14.38
2022-12-08T01:05:01.716Z,12.93
2022-12-08T01:07:28.730Z,13.23
2022-12-08T01:09:57.714Z,12.37
2022-12-08T01:12:25.180Z,12.75
2022-12-08T01:14:52.158Z,16.45
2022-12-08T01:17:19.434Z,17.12
2022-12-08T01:19:46.431Z,15.75
2022-12-08T01:22:13.422Z,15.57
2022-12-08T01:24:40.716Z,14.23
2022-12-08T01:27:07.707Z,14.52
2022-12-08T01:29:34.813Z,13.73
2022-12-08T01:32:02.249Z,16.23
2022-12-08T01:34:29.260Z,18.20
2022-12-08T01:36:56.261Z,14.85
2022-12-08T01:39:23.593Z,16.10
2022-12-08T01:41:50.649Z,16.85
2022-12-08T01:44:17.585Z,18.33
2022-12-08T01:46:47.309Z,18.10
2022-12-08T01:49:24.076Z,18.10
2022-12-08T01:52:02.546Z,16.05
2022-12-08T01:54:32.457Z,14.43
2022-12-08T01:57:06.371Z,14.90
2022-12-08T01:59:36.583Z,19.98
2022-12-08T02:02:04.037Z,18.02
2022-12-08T02:04:31.343Z,17.10
2022-12-08T02:07:01.445Z,16.70
2022-12-08T02:09:32.312Z,16.77
2022-12-08T02:11:59.895Z,14.55
2022-12-08T02:14:26.996Z,16.62
2022-12-08T02:17:28.278Z,15.80
2022-12-08T02:20:21.703Z,13.32
2022-12-08T02:23:01.075Z,18.40
2022-12-08T02:25:54.349Z,20.20
2022-12-08T02:28:49.096Z,15.52
2022-12-08T02:31:33.084Z,15.70
2022-12-08T02:34:29.664Z,20.58
2022-12-08T02:37:20.947Z,21.58
2022-12-08T02:39:56.812Z,23.23
2022-12-08T02:42:44.942Z,17.42
2022-12-08T02:45:22.300Z,21.05
2022-12-08T02:47:49.795Z,15.60
2022-12-08T02:50:17.052Z,12.15
2022-12-08T02:52:47.950Z,13.75
2022-12-08T02:55:18.661Z,14.85
2022-12-08T02:58:04.038Z,17.77
2022-12-08T03:00:43.842Z,19.33
2022-12-08T03:03:32.905Z,15.95
2022-12-08T03:06:22.211Z,15.48
2022-12-08T03:09:00.013Z,19.25
2022-12-08T03:11:36.205Z,15.95
2022-12-08T03:14:05.036Z,16.40
2022-12-08T03:16:34.181Z,13.23
2022-12-08T03:19:09.254Z,15.73
2022-12-08T03:21:37.572Z,15.43
2022-12-08T03:24:07.584Z,16.85
2022-12-08T03:26:47.299Z,15.35
2022-12-08T03:29:14.832Z,16.40
2022-12-08T03:31:46.690Z,14.25
2022-12-08T03:34:14.285Z,13.25
2022-12-08T03:36:41.720Z,15.13
2022-12-08T03:39:08.797Z,16.35
2022-12-08T03:41:35.846Z,16.95
2022-12-08T03:44:03.122Z,12.18
2022-12-08T03:48:57.352Z,19.25
2022-12-08T03:51:24.911Z,17.15
2022-12-08T03:53:51.902Z,20.08
2022-12-08T03:56:35.069Z,16.35
2022-12-08T03:59:03.327Z,14.05
2022-12-08T04:01:30.620Z,16.95
2022-12-08T04:03:58.244Z,18.98
2022-12-08T04:06:25.411Z,18.00
2022-12-08T04:08:52.563Z,18.08
2022-12-08T04:11:20.068Z,17.50
2022-12-08T04:13:47.346Z,17.52
2022-12-08T04:16:20.847Z,20.95
2022-12-08T04:18:48.325Z,24.02
2022-12-08T04:21:15.507Z,22.17
2022-12-08T04:23:42.718Z,20.75
2022-12-08T04:26:10.088Z,19.23
2022-12-08T04:28:37.249Z,20.42
2022-12-08T04:31:04.945Z,15.27
2022-12-08T04:33:32.247Z,23.27
2022-12-08T04:35:59.237Z,15.63
2022-12-08T04:38:26.984Z,19.77
2022-12-08T04:40:54.559Z,16.92
2022-12-08T04:43:21.551Z,17.80
2022-12-08T04:45:48.550Z,18.67
2022-12-08T04:48:16.097Z,27.92
2022-12-08T04:50:44.788Z,22.25
2022-12-08T04:53:12.469Z,20.40
2022-12-08T04:55:41.930Z,18.90
2022-12-08T04:58:12.750Z,21.12
2022-12-08T05:00:41.274Z,25.77
2022-12-08T05:03:08.527Z,20.17
2022-12-08T05:05:35.715Z,31.23
2022-12-08T05:08:03.106Z,26.65
2022-12-08T05:10:30.147Z,24.83
2022-12-08T05:12:58.877Z,22.73
2022-12-08T05:15:26.198Z,22.15
2022-12-08T05:17:53.344Z,28.55
2022-12-08T05:20:20.327Z,20.70
2022-12-08T05:22:47.610Z,24.98
2022-12-08T05:25:14.989Z,26.27
2022-12-08T05:27:43.098Z,32.20
2022-12-08T05:30:10.541Z,28.05
2022-12-08T05:32:37.597Z,26.77
2022-12-08T05:35:04.832Z,28.30
2022-12-08T05:37:32.184Z,25.80
2022-12-08T05:39:59.273Z,27.77
2022-12-08T05:42:26.293Z,34.47
2022-12-08T05:44:53.569Z,32.88
2022-12-08T05:47:20.542Z,31.20
2022-12-08T05:49:47.568Z,25.02
2022-12-08T05:52:16.903Z,34.45
2022-12-08T05:54:44.316Z,27.52
2022-12-08T05:57:11.575Z,27.30
2022-12-08T05:59:39.294Z,24.58
2022-12-08T06:02:06.411Z,32.95
2022-12-08T06:04:33.788Z,27.55
2022-12-08T06:07:00.835Z,27.62
2022-12-08T06:09:27.832Z,26.23
2022-12-08T06:11:55.104Z,27.30
2022-12-08T06:14:22.137Z,27.65
2022-12-08T06:16:49.199Z,26.48
2022-12-08T06:19:16.564Z,31.75
2022-12-08T06:21:43.544Z,28.20
2022-12-08T06:24:10.543Z,31.73
2022-12-08T06:26:37.977Z,30.30
2022-12-08T06:29:05.076Z,29.08
2022-12-08T06:31:32.111Z,30.35
2022-12-08T06:33:59.419Z,30.15
2022-12-08T06:36:27.999Z,31.55
2022-12-08T06:38:55.356Z,41.45
2022-12-08T06:41:22.648Z,29.45
2022-12-08T06:43:49.677Z,33.80
2022-12-08T06:46:18.826Z,29.27
2022-12-08T06:48:46.528Z,35.33
2022-12-08T06:51:19.191Z,35.88
2022-12-08T06:53:47.121Z,33.75
2022-12-08T06:56:15.880Z,35.03
2022-12-08T06:58:46.149Z,31.35
2022-12-08T07:01:17.918Z,33.92
2022-12-08T07:03:44.994Z,29.60
2022-12-08T07:06:16.963Z,33.40
2022-12-08T07:08:44.287Z,34.85
2022-12-08T07:11:15.309Z,34.17
2022-12-08T07:16:13.121Z,33.90
2022-12-08T07:18:41.589Z,31.23
2022-12-08T07:21:13.990Z,28.50
2022-12-08T07:23:41.196Z,33.17
2022-12-08T07:26:11.058Z,37.15
2022-12-08T07:28:39.777Z,30.85
2022-12-08T07:31:08.083Z,33.83
2022-12-08T07:33:36.182Z,31.25
2022-12-08T07:36:07.721Z,34.80
2022-12-08T07:38:34.693Z,28.42
2022-12-08T07:41:02.328Z,32.05
2022-12-08T07:43:29.361Z,28.08
2022-12-08T07:45:56.424Z,32.83
2022-12-08T07:48:23.746Z,29.80
2022-12-08T07:50:50.705Z,30.88
2022-12-08T07:53:17.740Z,31.17
2022-12-08T07:55:45.106Z,30.45
2022-12-08T07:58:12.156Z,27.65
2022-12-08T08:00:39.191Z,30.85
2022-12-08T08:03:08.866Z,32.17
2022-12-08T08:05:35.982Z,35.85
2022-12-08T08:08:03.158Z,34.17
2022-12-08T08:10:30.563Z,33.70
2022-12-08T08:13:00.767Z,31.73
2022-12-08T08:15:28.200Z,28.15
2022-12-08T08:17:55.570Z,30.98
2022-12-08T08:20:22.810Z,29.45
2022-12-08T08:22:50.872Z,25.58
2022-12-08T08:25:24.245Z,29.92
2022-12-08T08:27:51.281Z,26.87
2022-12-08T08:30:20.912Z,26.87
2022-12-08T08:32:49.202Z,29.70
2022-12-08T08:35:16.743Z,27.48
2022-12-08T08:37:48.586Z,27.65
2022-12-08T08:40:17.719Z,33.75
2022-12-08T08:42:45.143Z,27.58
2022-12-08T08:45:12.196Z,35.00
2022-12-08T08:47:39.175Z,34.75
2022-12-08T08:50:07.769Z,23.25
2022-12-08T08:52:35.098Z,28.55
2022-12-08T08:55:02.176Z,25.17
2022-12-08T08:57:29.456Z,28.23
2022-12-08T08:59:56.449Z,24.80
2022-12-08T09:02:23.495Z,29.08
2022-12-08T09:04:50.998Z,24.52
2022-12-08T09:07:18.014Z,29.27
2022-12-08T09:09:45.061Z,25.80
2022-12-08T09:12:12.871Z,18.73
2022-12-08T09:14:40.231Z,25.05
2022-12-08T09:17:10.107Z,27.45
2022-12-08T09:19:37.630Z,19.60
2022-12-08T09:22:05.241Z,23.52
2022-12-08T09:24:32.211Z,24.83
2022-12-08T09:26:59.649Z,25.75
2022-12-08T09:29:31.053Z,21.37
2022-12-08T09:32:01.470Z,23.33
2022-12-08T09:34:28.622Z,24.98
2022-12-08T09:36:55.640Z,25.98
2022-12-08T09:39:23.830Z,21.30
2022-12-08T09:41:56.360Z,24.63
2022-12-08T09:44:51.701Z,26.20
2022-12-08T09:47:35.251Z,19.70
2022-12-08T09:50:22.522Z,24.05
2022-12-08T09:53:14.226Z,19.58
2022-12-08T09:55:45.768Z,20.88
2022-12-08T09:58:21.231Z,23.75
2022-12-08T10:00:48.550Z,23.98
2022-12-08T10:03:17.044Z,24.85
2022-12-08T10:05:59.116Z,24.20
2022-12-08T10:08:33.386Z,28.52
2022-12-08T10:11:05.104Z,30.62
2022-12-08T10:13:57.551Z,22.83
2022-12-08T10:16:32.474Z,25.25
2022-12-08T10:19:10.692Z,24.70
2022-12-08T10:21:39.433Z,23.98
2022-12-08T10:24:13.692Z,27.73
2022-12-08T10:26:40.733Z,27.10
2022-12-08T10:29:14.764Z,26.02
2022-12-08T10:31:42.066Z,26.37
2022-12-08T10:34:18.809Z,32.42
2022-12-08T10:36:50.259Z,24.95
2022-12-08T10:39:29.670Z,25.00
2022-12-08T10:42:02.868Z,22.08
2022-12-08T10:44:30.316Z,24.95
2022-12-08T10:46:57.469Z,27.83
2022-12-08T10:49:32.372Z,31.35
2022-12-08T10:51:59.734Z,22.92
2022-12-08T10:54:34.505Z,19.62
2022-12-08T10:57:01.821Z,25.90
2022-12-08T10:59:29.281Z,21.90
2022-12-08T11:01:56.929Z,22.02
2022-12-08T11:04:30.844Z,23.10
2022-12-08T11:06:57.853Z,21.92
2022-12-08T11:09:49.113Z,26.98
2022-12-08T11:12:18.110Z,23.05
2022-12-08T11:14:45.878Z,23.62
2022-12-08T11:17:16.152Z,23.05
2022-12-08T11:19:56.348Z,22.60
2022-12-08T11:22:38.036Z,24.75
2022-12-08T11:25:07.790Z,27.02
2022-12-08T11:27:36.794Z,20.23
2022-12-08T11:30:27.512Z,24.98
2022-12-08T11:32:56.685Z,22.15
2022-12-08T11:35:30.175Z,23.25
2022-12-08T11:38:20.499Z,23.17
2022-12-08T11:40:50.744Z,17.30
2022-12-08T11:43:22.815Z,20.02
2022-12-08T11:46:04.732Z,15.90
2022-12-08T11:48:46.414Z,24.48
2022-12-08T11:51:29.719Z,20.73
2022-12-08T11:54:09.075Z,16.92
2022-12-08T11:56:41.789Z,16.62
2022-12-08T11:59:29.951Z,18.75
2022-12-08T12:02:01.446Z,19.15
2022-12-08T12:04:50.173Z,15.75
2022-12-08T12:07:36.165Z,16.52
2022-12-08T12:10:12.423Z,16.85
2022-12-08T12:12:49.871Z,16.62
2022-12-08T12:15:32.334Z,19.30
2022-12-08T12:17:59.263Z,23.45
2022-12-08T12:20:46.998Z,20.60
2022-12-08T12:23:24.712Z,21.75
2022-12-08T12:26:00.523Z,14.75
2022-12-08T12:28:33.279Z,20.42
2022-12-08T12:31:07.491Z,18.67
2022-12-08T12:33:35.720Z,21.30
2022-12-08T12:36:05.681Z,21.40
2022-12-08T12:38:57.916Z,18.77
2022-12-08T12:41:32.427Z,19.40
2022-12-08T12:46:51.112Z,20.95
2022-12-08T12:49:40.211Z,20.60
2022-12-08T12:52:10.551Z,20.05
2022-12-08T12:54:43.174Z,19.20
2022-12-08T12:57:10.463Z,29.60
2022-12-08T12:59:46.165Z,20.10
2022-12-08T13:02:21.899Z,20.37
2022-12-08T13:04:54.697Z,21.27
2022-12-08T13:07:25.341Z,17.62
2022-12-08T13:10:11.713Z,47.30
2022-12-08T13:12:39.116Z,33.58
2022-12-08T13:15:07.250Z,28.67
2022-12-08T13:17:36.368Z,31.02
2022-12-08T13:20:06.578Z,23.52
2022-12-08T13:23:01.925Z,23.52
2022-12-08T13:25:44.554Z,19.58
2022-12-08T13:28:21.577Z,18.95
2022-12-08T13:30:50.522Z,18.87
2022-12-08T13:33:40.812Z,21.12
2022-12-08T13:36:33.031Z,22.35
2022-12-08T13:39:00.107Z,25.30
2022-12-08T13:41:39.267Z,30.00
2022-12-08T13:47:32.421Z,25.45
2022-12-08T13:59:29.924Z,26.87
2022-12-08T14:02:17.560Z,23.20
2022-12-08T14:05:16.774Z,21.60
2022-12-08T14:07:34.581Z,25.05
2022-12-08T14:10:03.626Z,26.08
2022-12-08T14:12:31.379Z,28.65
2022-12-08T14:15:03.663Z,25.42
2022-12-08T14:17:32.472Z,24.92
2022-12-08T14:20:06.757Z,25.00
2022-12-08T14:22:39.418Z,21.12
2022-12-08T14:25:11.482Z,22.98
2022-12-08T14:27:38.888Z,24.50
2022-12-08T14:30:08.755Z,21.37
2022-12-08T14:32:39.556Z,22.77
2022-12-08T14:35:06.950Z,25.00
2022-12-08T14:37:36.936Z,21.52
2022-12-08T14:40:24.063Z,22.85
2022-12-08T14:42:54.073Z,25.65
2022-12-08T14:45:21.303Z,23.98
2022-12-08T14:47:48.713Z,26.10
2022-12-08T14:50:41.987Z,28.87
2022-12-08T14:53:17.374Z,31.60
2022-12-08T14:55:47.671Z,29.67
2022-12-08T14:58:30.468Z,37.60
2022-12-08T15:00:58.812Z,30.40
2022-12-08T15:03:30.510Z,34.22
2022-12-08T15:06:00.355Z,27.35
2022-12-08T15:08:27.618Z,30.15
2022-12-08T15:11:22.819Z,24.73
2022-12-08T15:13:51.845Z,19.58
2022-12-08T15:16:43.101Z,21.45
2022-12-08T15:19:23.271Z,26.77
2022-12-08T15:21:51.018Z,26.80
2022-12-08T15:24:26.017Z,23.55
2022-12-08T15:26:53.775Z,23.00
2022-12-08T15:29:25.976Z,26.87
2022-12-08T15:31:55.563Z,26.75
2022-12-08T15:34:23.198Z,31.30
2022-12-08T15:36:51.523Z,29.02
2022-12-08T15:39:25.126Z,27.20
2022-12-08T15:41:52.750Z,26.33
2022-12-08T15:44:19.721Z,21.20
2022-12-08T15:46:46.857Z,24.08
2022-12-08T15:49:18.959Z,26.33
2022-12-08T15:51:45.981Z,25.70
2022-12-08T15:54:13.215Z,25.88
2022-12-08T15:57:10.905Z,26.60
2022-12-08T15:59:33.273Z,20.62
2022-12-08T16:02:00.627Z,22.73
2022-12-08T16:05:17.845Z,21.87
2022-12-08T16:07:38.040Z,27.02
2022-12-08T16:10:07.090Z,26.83
2022-12-08T16:16:00.661Z,23.12
2022-12-08T16:18:33.265Z,23.20
2022-12-08T16:21:41.704Z,25.48
2022-12-08T16:23:48.288Z,26.23
2022-12-08T16:26:39.338Z,23.20
2022-12-08T16:29:05.844Z,19.05
2022-12-08T16:31:33.448Z,19.50
2022-12-08T16:34:01.594Z,17.17
2022-12-08T16:36:28.574Z,21.83
2022-12-08T16:38:55.852Z,23.90
2022-12-08T16:41:44.374Z,41.90
2022-12-08T16:44:11.623Z,26.25
2022-12-08T16:46:39.177Z,28.75
2022-12-08T16:49:08.497Z,24.45
2022-12-08T16:51:35.776Z,19.27
2022-12-08T16:54:02.828Z,29.67
2022-12-08T16:56:33.209Z,26.60
2022-12-08T16:59:01.954Z,23.10
2022-12-08T17:01:29.329Z,29.20
2022-12-08T17:04:22.962Z,25.00
2022-12-08T17:06:43.791Z,19.90
2022-12-08T17:09:10.787Z,23.30
2022-12-08T17:11:42.943Z,25.85
2022-12-08T17:14:14.082Z,27.10
2022-12-08T17:16:41.707Z,21.83
2022-12-08T17:19:09.364Z,23.08
2022-12-08T17:21:36.661Z,25.20
2022-12-08T17:24:04.591Z,23.60
2022-12-08T17:26:31.720Z,19.50
2022-12-08T17:29:01.835Z,21.08
2022-12-08T17:31:31.447Z,14.10
2022-12-08T17:34:03.886Z,17.55
2022-12-08T17:36:31.353Z,16.33
2022-12-08T17:39:00.336Z,21.35
2022-12-08T17:41:28.071Z,18.65
2022-12-08T17:43:55.216Z,15.85
2022-12-08T17:46:23.449Z,14.23
2022-12-08T17:48:50.474Z,16.60
2022-12-08T17:51:17.751Z,13.82
2022-12-08T17:53:45.554Z,17.00
2022-12-08T17:56:20.995Z,26.67
2022-12-08T17:58:53.998Z,21.90
2022-12-08T18:01:22.946Z,18.25
2022-12-08T18:03:50.806Z,15.30
2022-12-08T18:06:17.856Z,17.83
2022-12-08T18:08:45.106Z,15.30
2022-12-08T18:11:15.062Z,15.85
2022-12-08T18:13:42.219Z,25.83
2022-12-08T18:16:09.257Z,18.98
2022-12-08T18:18:37.678Z,17.42
2022-12-08T18:21:04.835Z,19.45
2022-12-08T18:23:31.958Z,18.67
2022-12-08T18:25:59.445Z,17.75
2022-12-08T18:28:26.508Z,18.58
2022-12-08T18:30:53.552Z,18.00
2022-12-08T18:33:22.811Z,17.77
2022-12-08T18:35:50.103Z,16.83
2022-12-08T18:38:17.104Z,19.52
2022-12-08T18:40:47.556Z,21.25
2022-12-08T18:43:14.554Z,17.20
2022-12-08T18:45:41.628Z,17.70
2022-12-08T18:48:08.944Z,18.25
2022-12-08T18:50:35.949Z,18.55
2022-12-08T18:53:02.972Z,17.20
2022-12-08T18:55:30.265Z,19.00
2022-12-08T18:57:57.294Z,19.98
2022-12-08T19:00:25.475Z,24.35
2022-12-08T19:02:52.814Z,18.92
2022-12-08T19:05:19.906Z,20.58
2022-12-08T19:07:47.004Z,22.40
2022-12-08T19:10:14.485Z,23.20
2022-12-08T19:12:41.560Z,26.37
2022-12-08T19:15:09.252Z,21.60
2022-12-08T19:17:36.773Z,23.77
2022-12-08T19:20:05.184Z,24.85
2022-12-08T19:22:32.543Z,21.98
2022-12-08T19:24:59.940Z,23.90
2022-12-08T19:27:28.022Z,24.90
2022-12-08T19:29:55.883Z,25.27
2022-12-08T19:32:23.158Z,18.30
2022-12-08T19:34:50.267Z,22.30
2022-12-08T19:37:17.258Z,23.05
2022-12-08T19:40:03.178Z,29.05
2022-12-08T19:42:49.008Z,22.95
2022-12-08T19:45:21.480Z,22.00
2022-12-08T19:47:48.937Z,23.25
2022-12-08T19:50:35.576Z,27.17
2022-12-08T19:53:11.211Z,21.25
2022-12-08T19:55:38.947Z,22.65
2022-12-08T19:58:06.899Z,22.42
2022-12-08T20:00:35.238Z,28.30
2022-12-08T20:03:03.400Z,25.00
2022-12-08T20:05:31.348Z,29.02
2022-12-08T20:07:58.367Z,24.08
2022-12-08T20:10:29.263Z,23.98
2022-12-08T20:13:16.754Z,23.42
2022-12-08T20:15:44.625Z,25.70
2022-12-08T20:18:12.797Z,26.30
2022-12-08T20:20:41.222Z,23.95
2022-12-08T20:23:08.767Z,21.52
2022-12-08T20:25:41.307Z,26.85
2022-12-08T20:28:08.853Z,25.00
2022-12-08T20:30:38.740Z,25.55
2022-12-08T20:33:05.777Z,28.20
2022-12-08T20:35:33.686Z,23.30
2022-12-08T20:38:00.752Z,25.65
2022-12-08T20:40:27.764Z,31.40
2022-12-08T20:42:56.309Z,35.10
2022-12-08T20:45:23.281Z,26.37
2022-12-08T20:47:50.406Z,28.98
2022-12-08T20:50:17.818Z,27.52
2022-12-08T20:52:44.893Z,26.27
2022-12-08T20:55:11.935Z,26.50
2022-12-08T20:57:39.230Z,27.13
2022-12-08T21:00:08.596Z,29.00
2022-12-08T21:02:36.033Z,28.20
2022-12-08T21:05:04.853Z,31.33
2022-12-08T21:07:33.708Z,25.30
2022-12-08T21:10:01.138Z,28.20
2022-12-08T21:12:28.666Z,25.10
2022-12-08T21:14:55.746Z,32.00
2022-12-08T21:17:22.921Z,34.15
2022-12-08T21:19:50.461Z,33.17
2022-12-08T21:22:17.583Z,31.08
2022-12-08T21:24:44.684Z,31.62
2022-12-08T21:27:11.971Z,32.28
2022-12-08T21:29:39.031Z,35.22
2022-12-08T21:32:06.289Z,33.22
2022-12-08T21:34:34.220Z,30.73
2022-12-08T21:37:02.135Z,32.53
2022-12-08T21:39:29.267Z,31.62
2022-12-08T21:42:14.950Z,34.60
2022-12-08T21:44:42.101Z,33.28
2022-12-08T21:47:09.436Z,32.25
2022-12-08T21:49:36.544Z,34.60
2022-12-08T21:52:03.709Z,35.72
2022-12-08T21:54:31.288Z,36.03
2022-12-08T21:56:58.362Z,42.90
2022-12-08T21:59:25.389Z,39.53
2022-12-08T22:01:52.777Z,35.10
2022-12-08T22:04:21.842Z,39.03
2022-12-08T22:06:49.148Z,36.90
2022-12-08T22:09:16.415Z,35.55
2022-12-08T22:11:44.483Z,36.55
2022-12-08T22:14:14.928Z,34.13
2022-12-08T22:16:43.290Z,32.38
2022-12-08T22:19:11.392Z,39.53
2022-12-08T22:21:38.553Z,43.75
2022-12-08T22:24:06.216Z,36.25
2022-12-08T22:26:34.003Z,36.10
2022-12-08T22:29:01.438Z,37.55
2022-12-08T22:31:28.502Z,34.20
2022-12-08T22:33:56.060Z,39.15
2022-12-08T22:36:25.043Z,37.92
2022-12-08T22:38:53.409Z,37.38
2022-12-08T22:41:22.165Z,40.47
2022-12-08T22:43:50.205Z,34.40
2022-12-08T22:46:23.302Z,39.92
2022-12-08T22:48:51.508Z,37.83
2022-12-08T22:51:19.297Z,35.78
2022-12-08T22:53:47.130Z,33.40
2022-12-08T22:56:15.368Z,35.17
2022-12-08T22:58:43.053Z,40.33
2022-12-08T23:01:25.441Z,37.75
2022-12-08T23:03:53.277Z,35.00
2022-12-08T23:06:20.681Z,39.10
2022-12-08T23:08:48.279Z,38.28
2022-12-08T23:11:15.661Z,39.15
2022-12-08T23:13:42.672Z,38.80
2022-12-08T23:16:10.973Z,33.55
2022-12-08T23:18:44.446Z,39.10
2022-12-08T23:21:15.826Z,36.78
2022-12-08T23:23:43.142Z,40.53
2022-12-08T23:26:25.167Z,38.38
2022-12-08T23:28:52.780Z,43.67
2022-12-08T23:31:20.257Z,38.58
2022-12-08T23:33:47.859Z,38.08
2022-12-08T23:36:16.563Z,42.85
2022-12-08T23:38:43.812Z,48.15
2022-12-08T23:41:12.345Z,40.22
2022-12-08T23:43:44.446Z,38.42
2022-12-08T23:46:11.789Z,43.65
2022-12-08T23:48:38.888Z,42.28
2022-12-08T23:51:06.446Z,34.20
2022-12-08T23:53:33.695Z,44.00
2022-12-08T23:56:02.348Z,46.15
2022-12-08T23:58:30.876Z,40.85
